Time;durP1;ratioP1;P1;durP2;ratioP2;P2;SDS_P1;SDS_P2;PMS_P1;PMS_P2;Temp;Humidity;BMP_temperature;BMP_pressure;BME280_temperature;BME280_humidity;BME280_pressure;Samples;Min_cycle;Max_cycle;Signal;HPM_P1;HPM_P2
2021/06/14 00:01:50;;;;;;;;;;;23.30;99.90;;;;;;5042675;28;20016;-78
2021/06/14 00:04:15;;;;;;;;;;;23.20;99.90;;;;;;5043416;28;19913;-78
2021/06/14 00:06:41;;;;;;;;;;;23.20;99.90;;;;;;5038358;28;20850;-77
2021/06/14 00:09:06;;;;;;;;;;;23.10;99.90;;;;;;5041039;28;19913;-78
2021/06/14 00:11:32;;;;;;;;;;;22.90;99.90;;;;;;5037429;28;20375;-78
2021/06/14 00:13:58;;;;;;;;;;;22.60;99.90;;;;;;5036927;28;19972;-77
2021/06/14 00:16:23;;;;;;;;;;;22.60;99.90;;;;;;5035108;28;19968;-77
2021/06/14 00:18:49;;;;;;;;;;;22.60;99.90;;;;;;5033219;28;19913;-76
2021/06/14 00:21:17;;;;;;;;;;;22.40;99.90;;;;;;5033937;28;19913;-78
2021/06/14 00:23:42;;;;;;;;;;;22.50;99.90;;;;;;5034538;28;19927;-78
2021/06/14 00:26:10;;;;;;;;;;;22.40;99.90;;;;;;5034427;28;19909;-79
2021/06/14 00:28:36;;;;;;;;;;;22.40;99.90;;;;;;5032758;28;19913;-77
2021/06/14 00:31:02;;;;;;;;;;;22.40;99.90;;;;;;5033634;28;19921;-78
2021/06/14 00:33:28;;;;;;;;;;;22.40;99.90;;;;;;5032770;28;20330;-78
2021/06/14 00:35:53;;;;;;;;;;;22.50;99.90;;;;;;5032472;28;20356;-78
2021/06/14 00:38:19;;;;;;;;;;;22.40;99.90;;;;;;5033400;28;19913;-78
2021/06/14 00:40:46;;;;;;;;;;;22.20;99.90;;;;;;5034508;28;20371;-78
2021/06/14 00:43:12;;;;;;;;;;;22.20;99.90;;;;;;5034497;28;19976;-79
2021/06/14 00:45:42;;;;;;;;;;;22.20;99.90;;;;;;5032824;28;20292;-77
2021/06/14 00:48:08;;;;;;;;;;;22.20;99.90;;;;;;5034700;28;19946;-77
2021/06/14 00:50:33;;;;;;;;;;;22.20;99.90;;;;;;5036294;28;20342;-78
2021/06/14 00:52:59;;;;;;;;;;;22.10;99.90;;;;;;5035752;28;19913;-78
2021/06/14 00:55:25;;;;;;;;;;;22.10;99.90;;;;;;5032840;28;19913;-78
2021/06/14 00:57:50;;;;;;;;;;;22.10;99.90;;;;;;5032162;28;19921;-78
2021/06/14 01:00:16;;;;;;;;;;;22.00;99.90;;;;;;5030830;28;20150;-79
2021/06/14 01:02:42;;;;;;;;;;;21.90;99.90;;;;;;5033396;28;19920;-78
2021/06/14 01:05:09;;;;;;;;;;;21.70;99.90;;;;;;5037531;28;19913;-78
2021/06/14 01:07:35;;;;;;;;;;;21.70;99.90;;;;;;5036344;28;19913;-78
2021/06/14 01:10:01;;;;;;;;;;;21.60;99.90;;;;;;5035359;28;20014;-78
2021/06/14 01:12:29;;;;;;;;;;;21.60;99.90;;;;;;5033075;28;20089;-78
2021/06/14 01:15:00;;;;;;;;;;;21.60;99.90;;;;;;5033443;28;19909;-78
2021/06/14 01:17:35;;;;;;;;;;;21.60;99.90;;;;;;5033633;28;19910;-77
2021/06/14 01:20:19;;;;;;;;;;;21.50;99.90;;;;;;5033053;28;20008;-77
2021/06/14 01:23:04;;;;;;;;;;;21.50;99.90;;;;;;5024368;28;19916;-77
2021/06/14 01:25:32;;;;;;;;;;;21.40;99.90;;;;;;5032011;28;20371;-77
2021/06/14 01:27:58;;;;;;;;;;;21.20;99.90;;;;;;5031794;28;19996;-78
2021/06/14 01:30:25;;;;;;;;;;;21.20;99.90;;;;;;5033027;28;19913;-78
2021/06/14 01:32:51;;;;;;;;;;;21.20;99.90;;;;;;5035300;28;19979;-79
2021/06/14 01:35:19;;;;;;;;;;;21.20;99.90;;;;;;5032971;28;20379;-78
2021/06/14 01:37:46;;;;;;;;;;;21.40;99.90;;;;;;5032975;28;19909;-78
2021/06/14 01:40:13;;;;;;;;;;;21.40;99.90;;;;;;5036005;28;20510;-78
2021/06/14 01:42:40;;;;;;;;;;;21.30;99.90;;;;;;5028854;28;19913;-78
2021/06/14 01:45:06;;;;;;;;;;;21.30;99.90;;;;;;5032041;28;19913;-77
2021/06/14 01:47:31;;;;;;;;;;;21.30;99.90;;;;;;5031308;28;20348;-77
2021/06/14 01:49:57;;;;;;;;;;;21.40;99.90;;;;;;5031711;28;20003;-77
2021/06/14 01:52:23;;;;;;;;;;;21.20;99.90;;;;;;5032032;28;19909;-78
2021/06/14 01:54:51;;;;;;;;;;;21.20;99.90;;;;;;5032195;28;19913;-78
2021/06/14 01:57:16;;;;;;;;;;;21.30;99.90;;;;;;5032587;28;19968;-78
2021/06/14 01:59:43;;;;;;;;;;;21.30;99.90;;;;;;5032065;28;19948;-78
2021/06/14 02:02:09;;;;;;;;;;;21.30;99.90;;;;;;5032443;28;19916;-78
2021/06/14 02:04:35;;;;;;;;;;;21.20;99.90;;;;;;5015304;28;19909;-78
2021/06/14 02:07:02;;;;;;;;;;;21.20;99.90;;;;;;5032395;28;19913;-77
2021/06/14 02:09:29;;;;;;;;;;;21.30;99.90;;;;;;5031173;28;19921;-77
2021/06/14 02:11:57;;;;;;;;;;;21.40;99.90;;;;;;5031137;28;19992;-77
2021/06/14 02:14:25;;;;;;;;;;;21.40;99.90;;;;;;5013323;28;19917;-77
2021/06/14 02:16:52;;;;;;;;;;;21.40;99.90;;;;;;5031144;28;19991;-78
2021/06/14 02:19:17;;;;;;;;;;;21.20;99.90;;;;;;5031230;28;19913;-77
2021/06/14 02:21:44;;;;;;;;;;;21.20;99.90;;;;;;5031399;28;19968;-77
2021/06/14 02:24:11;;;;;;;;;;;21.20;99.90;;;;;;5031419;28;20459;-78
2021/06/14 02:26:37;;;;;;;;;;;21.00;99.90;;;;;;5031186;28;20012;-77
2021/06/14 02:29:03;;;;;;;;;;;21.00;99.90;;;;;;5030179;28;19921;-77
2021/06/14 02:31:29;;;;;;;;;;;20.90;99.90;;;;;;5031466;28;19921;-77
2021/06/14 02:33:55;;;;;;;;;;;20.80;99.90;;;;;;5030477;28;19913;-78
2021/06/14 02:36:22;;;;;;;;;;;20.70;99.90;;;;;;5027448;28;20341;-77
2021/06/14 02:38:48;;;;;;;;;;;20.80;99.90;;;;;;5014272;28;19913;-78
2021/06/14 02:41:14;;;;;;;;;;;20.80;99.90;;;;;;5031723;28;19932;-78
2021/06/14 02:43:40;;;;;;;;;;;20.80;99.90;;;;;;5030303;28;19945;-77
2021/06/14 02:46:07;;;;;;;;;;;20.70;99.90;;;;;;5030581;28;20691;-77
2021/06/14 02:48:33;;;;;;;;;;;20.70;99.90;;;;;;5030894;28;20367;-77
2021/06/14 02:50:59;;;;;;;;;;;20.60;99.90;;;;;;5031339;28;19917;-78
2021/06/14 02:53:26;;;;;;;;;;;20.60;99.90;;;;;;5031249;28;19920;-78
2021/06/14 02:56:11;;;;;;;;;;;20.70;99.90;;;;;;5014335;28;19963;-77
2021/06/14 02:58:40;;;;;;;;;;;20.70;99.90;;;;;;5030348;28;19917;-77
2021/06/14 03:01:08;;;;;;;;;;;20.70;99.90;;;;;;5032746;28;19913;-78
2021/06/14 03:03:38;;;;;;;;;;;20.60;99.90;;;;;;5031445;28;19909;-77
2021/06/14 03:06:06;;;;;;;;;;;20.70;99.90;;;;;;5013679;28;19913;-78
2021/06/14 03:08:32;;;;;;;;;;;20.80;99.90;;;;;;5030981;28;19910;-78
2021/06/14 03:10:58;;;;;;;;;;;20.80;99.90;;;;;;5031307;28;20279;-77
2021/06/14 03:13:24;;;;;;;;;;;20.80;99.90;;;;;;5031326;28;19916;-77
2021/06/14 03:15:49;;;;;;;;;;;20.90;99.90;;;;;;5031907;28;20341;-77
2021/06/14 03:18:16;;;;;;;;;;;20.90;99.90;;;;;;5030309;28;19971;-77
2021/06/14 03:20:42;;;;;;;;;;;20.80;99.90;;;;;;5031278;28;19999;-77
2021/06/14 03:23:08;;;;;;;;;;;20.80;99.90;;;;;;5030715;28;21633;-77
2021/06/14 03:25:34;;;;;;;;;;;20.90;99.90;;;;;;5030723;28;19913;-76
2021/06/14 03:27:59;;;;;;;;;;;20.90;99.90;;;;;;5030765;28;19909;-77
2021/06/14 03:30:27;;;;;;;;;;;21.00;99.90;;;;;;5030102;28;19917;-78
2021/06/14 03:32:52;;;;;;;;;;;20.90;99.90;;;;;;5030883;28;19920;-77
2021/06/14 03:35:20;;;;;;;;;;;21.00;99.90;;;;;;5031422;28;19909;-78
2021/06/14 03:37:46;;;;;;;;;;;21.00;99.90;;;;;;5031340;28;19956;-78
2021/06/14 03:40:12;;;;;;;;;;;21.00;99.90;;;;;;5031208;28;19909;-78
2021/06/14 03:42:38;;;;;;;;;;;21.00;99.90;;;;;;5013793;28;20307;-77
2021/06/14 03:45:05;;;;;;;;;;;21.10;99.90;;;;;;5032644;28;20554;-78
2021/06/14 03:47:30;;;;;;;;;;;21.10;99.90;;;;;;5035145;28;19913;-78
2021/06/14 03:49:56;;;;;;;;;;;21.10;99.90;;;;;;5034276;28;19918;-78
2021/06/14 03:52:21;;;;;;;;;;;21.10;99.90;;;;;;5034524;28;19967;-78
2021/06/14 03:54:47;;;;;;;;;;;21.10;99.90;;;;;;5018317;28;19959;-78
2021/06/14 03:57:12;;;;;;;;;;;21.10;99.90;;;;;;5033979;28;19923;-78
2021/06/14 03:59:38;;;;;;;;;;;21.20;99.90;;;;;;5031743;28;19967;-77
2021/06/14 04:02:04;;;;;;;;;;;21.00;99.90;;;;;;5034487;28;19943;-78
2021/06/14 04:06:55;;;;;;;;;;;20.50;99.90;;;;;;5036545;28;19917;-78
2021/06/14 04:09:21;;;;;;;;;;;20.60;99.90;;;;;;5035838;28;19920;-77
2021/06/14 04:11:47;;;;;;;;;;;20.70;99.90;;;;;;5035451;28;20367;-78
2021/06/14 04:14:12;;;;;;;;;;;20.60;99.90;;;;;;5035607;28;19921;-77
2021/06/14 04:16:38;;;;;;;;;;;20.70;99.90;;;;;;5036278;28;19959;-78
2021/06/14 04:19:03;;;;;;;;;;;20.60;99.90;;;;;;5036234;28;19909;-77
2021/06/14 04:21:29;;;;;;;;;;;20.60;99.90;;;;;;5037152;28;19920;-79
2021/06/14 04:23:54;;;;;;;;;;;20.70;99.90;;;;;;5033768;28;19913;-72
2021/06/14 04:26:20;;;;;;;;;;;20.80;99.90;;;;;;5032967;28;19963;-73
2021/06/14 04:28:46;;;;;;;;;;;21.00;99.90;;;;;;5034494;28;19916;-73
2021/06/14 04:31:11;;;;;;;;;;;21.00;99.90;;;;;;5032654;28;20379;-74
2021/06/14 04:33:37;;;;;;;;;;;21.00;99.90;;;;;;5034038;28;19964;-73
2021/06/14 04:36:04;;;;;;;;;;;20.90;99.90;;;;;;5034298;28;19913;-73
2021/06/14 04:38:30;;;;;;;;;;;20.70;99.90;;;;;;5015784;28;19913;-74
2021/06/14 04:40:55;;;;;;;;;;;20.50;99.90;;;;;;5033753;28;19924;-72
2021/06/14 04:43:21;;;;;;;;;;;20.50;99.90;;;;;;5035630;28;20003;-73
2021/06/14 04:45:46;;;;;;;;;;;20.50;99.90;;;;;;5034053;28;19916;-73
2021/06/14 04:48:12;;;;;;;;;;;20.50;99.90;;;;;;5033923;28;19910;-72
2021/06/14 04:50:37;;;;;;;;;;;20.50;99.90;;;;;;5033169;28;19940;-72
2021/06/14 04:53:03;;;;;;;;;;;20.60;99.90;;;;;;5034027;28;20511;-72
2021/06/14 04:55:29;;;;;;;;;;;20.40;99.90;;;;;;5033724;28;19913;-72
2021/06/14 04:57:54;;;;;;;;;;;20.50;99.90;;;;;;5014731;28;19917;-72
2021/06/14 05:00:20;;;;;;;;;;;20.50;99.90;;;;;;5017912;28;19920;-72
2021/06/14 05:02:46;;;;;;;;;;;20.40;99.90;;;;;;5034629;28;19975;-74
2021/06/14 05:05:12;;;;;;;;;;;20.30;99.90;;;;;;5037253;28;20386;-71
2021/06/14 05:07:37;;;;;;;;;;;20.30;99.90;;;;;;5042071;28;20020;-72
2021/06/14 05:10:04;;;;;;;;;;;20.30;99.90;;;;;;5037969;28;19960;-72
2021/06/14 05:12:29;;;;;;;;;;;20.40;99.90;;;;;;5033580;28;20000;-73
2021/06/14 05:14:55;;;;;;;;;;;20.40;99.90;;;;;;5035257;28;19925;-73
2021/06/14 05:17:20;;;;;;;;;;;20.60;99.90;;;;;;5031001;28;20408;-73
2021/06/14 05:19:46;;;;;;;;;;;20.70;99.90;;;;;;5034484;28;19949;-74
2021/06/14 05:22:12;;;;;;;;;;;20.90;99.90;;;;;;5035583;28;19915;-74
2021/06/14 05:24:38;;;;;;;;;;;21.00;99.90;;;;;;5035630;28;19993;-72
2021/06/14 05:27:03;;;;;;;;;;;21.00;99.90;;;;;;5035200;28;19916;-73
2021/06/14 05:29:29;;;;;;;;;;;21.10;99.90;;;;;;5035542;28;20080;-73
2021/06/14 05:31:55;;;;;;;;;;;21.30;99.90;;;;;;5018567;28;19920;-72
2021/06/14 05:34:21;;;;;;;;;;;21.50;99.90;;;;;;5020985;28;19943;-71
2021/06/14 05:36:47;;;;;;;;;;;21.70;99.90;;;;;;5040055;28;19913;-72
2021/06/14 05:39:12;;;;;;;;;;;21.80;99.90;;;;;;5040047;28;20000;-73
2021/06/14 05:41:38;;;;;;;;;;;21.80;99.90;;;;;;5038462;28;19909;-72
2021/06/14 05:44:04;;;;;;;;;;;21.90;99.90;;;;;;5034082;28;19909;-73
2021/06/14 05:46:29;;;;;;;;;;;21.90;99.90;;;;;;5016584;28;19956;-74
2021/06/14 05:48:55;;;;;;;;;;;21.80;99.90;;;;;;5032948;28;19967;-74
2021/06/14 05:51:21;;;;;;;;;;;21.90;99.90;;;;;;5033171;28;19924;-73
2021/06/14 05:53:49;;;;;;;;;;;22.00;99.90;;;;;;5034614;28;19967;-73
2021/06/14 05:56:15;;;;;;;;;;;21.90;99.90;;;;;;5032853;28;20287;-73
2021/06/14 05:58:41;;;;;;;;;;;21.90;99.90;;;;;;5015376;28;20431;-72
2021/06/14 06:01:07;;;;;;;;;;;22.10;99.90;;;;;;5031278;28;19945;-73
2021/06/14 06:03:32;;;;;;;;;;;22.10;99.90;;;;;;5028659;28;19924;-75
2021/06/14 06:05:58;;;;;;;;;;;22.30;99.90;;;;;;5032782;28;19913;-74
2021/06/14 06:08:23;;;;;;;;;;;22.30;99.90;;;;;;5032225;28;19913;-73
2021/06/14 06:10:49;;;;;;;;;;;22.30;99.90;;;;;;5034269;28;19959;-73
2021/06/14 06:13:15;;;;;;;;;;;22.40;99.90;;;;;;5033588;28;19909;-73
2021/06/14 06:15:41;;;;;;;;;;;22.50;99.90;;;;;;5032317;28;19913;-74
2021/06/14 06:18:06;;;;;;;;;;;22.70;99.90;;;;;;5030860;28;19913;-74
2021/06/14 06:20:35;;;;;;;;;;;22.80;99.90;;;;;;5021874;28;20361;-72
2021/06/14 06:23:01;;;;;;;;;;;23.00;99.90;;;;;;5033641;28;19913;-74
2021/06/14 06:25:27;;;;;;;;;;;23.00;99.90;;;;;;5032390;28;19913;-73
2021/06/14 06:27:52;;;;;;;;;;;22.80;99.90;;;;;;5031896;28;20307;-73
2021/06/14 06:30:19;;;;;;;;;;;22.80;99.90;;;;;;5031982;28;19914;-73
2021/06/14 06:32:45;;;;;;;;;;;22.80;99.90;;;;;;5030209;28;19913;-73
2021/06/14 06:35:11;;;;;;;;;;;23.00;99.90;;;;;;5031290;28;19917;-74
2021/06/14 06:37:37;;;;;;;;;;;23.10;99.90;;;;;;5031421;28;20259;-74
2021/06/14 06:40:04;;;;;;;;;;;22.80;99.90;;;;;;5031825;28;19909;-72
2021/06/14 06:42:30;;;;;;;;;;;22.70;99.90;;;;;;5013608;28;20353;-73
2021/06/14 06:44:55;;;;;;;;;;;22.90;99.90;;;;;;5032120;28;19917;-73
2021/06/14 06:47:21;;;;;;;;;;;22.90;99.90;;;;;;5027149;28;19948;-74
2021/06/14 06:49:47;;;;;;;;;;;23.10;99.90;;;;;;5029237;28;19957;-73
2021/06/14 06:52:13;;;;;;;;;;;23.30;99.90;;;;;;5031476;28;19913;-74
2021/06/14 06:54:38;;;;;;;;;;;23.40;99.90;;;;;;5030329;28;20059;-75
2021/06/14 06:57:04;;;;;;;;;;;23.70;99.90;;;;;;5031703;28;20414;-73
2021/06/14 06:59:30;;;;;;;;;;;23.80;99.90;;;;;;5030673;28;19913;-75
2021/06/14 07:01:55;;;;;;;;;;;23.90;99.90;;;;;;5028209;28;19917;-76
2021/06/14 07:04:21;;;;;;;;;;;23.90;99.90;;;;;;5031185;28;20275;-74
2021/06/14 07:06:46;;;;;;;;;;;23.90;99.90;;;;;;5031344;28;19913;-75
2021/06/14 07:09:12;;;;;;;;;;;24.00;99.90;;;;;;5026586;28;19913;-75
2021/06/14 07:11:38;;;;;;;;;;;24.20;99.90;;;;;;5030883;28;20330;-75
2021/06/14 07:14:04;;;;;;;;;;;24.30;99.90;;;;;;5030828;28;19936;-75
2021/06/14 07:16:30;;;;;;;;;;;24.40;99.90;;;;;;5013450;28;19909;-74
2021/06/14 07:18:55;;;;;;;;;;;24.50;99.90;;;;;;5031281;28;19921;-75
2021/06/14 07:21:22;;;;;;;;;;;24.60;99.90;;;;;;5034711;28;19920;-77
2021/06/14 07:23:48;;;;;;;;;;;24.50;99.90;;;;;;5018073;28;19913;-74
2021/06/14 07:26:14;;;;;;;;;;;24.60;99.90;;;;;;5035687;28;19909;-74
2021/06/14 07:28:40;;;;;;;;;;;24.70;99.90;;;;;;5017834;28;19916;-75
2021/06/14 07:31:06;;;;;;;;;;;24.90;99.90;;;;;;5034404;28;19917;-74
2021/06/14 07:33:32;;;;;;;;;;;25.00;99.90;;;;;;5036009;28;20287;-75
2021/06/14 07:35:57;;;;;;;;;;;24.40;99.90;;;;;;5035449;28;19909;-74
2021/06/14 07:38:25;;;;;;;;;;;24.40;99.90;;;;;;5035049;28;20385;-75
2021/06/14 07:40:50;;;;;;;;;;;24.10;99.90;;;;;;5017501;28;19920;-74
2021/06/14 07:43:17;;;;;;;;;;;24.00;99.90;;;;;;5035242;28;19913;-74
2021/06/14 07:45:43;;;;;;;;;;;24.30;99.90;;;;;;5017557;28;20330;-75
2021/06/14 07:48:09;;;;;;;;;;;24.30;99.90;;;;;;5035410;28;19913;-75
2021/06/14 07:50:34;;;;;;;;;;;24.50;99.90;;;;;;5035144;28;20359;-75
2021/06/14 07:53:01;;;;;;;;;;;24.40;99.90;;;;;;5033562;28;19924;-77
2021/06/14 07:55:26;;;;;;;;;;;24.60;99.90;;;;;;5013363;28;20003;-74
2021/06/14 07:57:52;;;;;;;;;;;24.40;99.90;;;;;;5034944;28;19952;-74
2021/06/14 08:00:18;;;;;;;;;;;24.40;99.90;;;;;;5039580;28;20116;-73
2021/06/14 08:02:44;;;;;;;;;;;24.40;99.90;;;;;;5036499;28;19909;-74
2021/06/14 08:05:11;;;;;;;;;;;24.40;99.90;;;;;;5035827;28;19913;-75
2021/06/14 08:07:37;;;;;;;;;;;24.40;99.90;;;;;;5018894;28;20000;-75
2021/06/14 08:10:05;;;;;;;;;;;24.60;99.90;;;;;;5035305;28;20387;-74
2021/06/14 08:12:32;;;;;;;;;;;24.80;99.90;;;;;;5034983;28;19917;-73
2021/06/14 08:14:58;;;;;;;;;;;24.90;99.90;;;;;;5034945;28;20026;-73
2021/06/14 08:17:25;;;;;;;;;;;24.90;99.90;;;;;;5035066;28;20391;-74
2021/06/14 08:19:55;;;;;;;;;;;25.10;99.90;;;;;;5034281;28;20409;-75
2021/06/14 08:25:07;;;;;;;;;;;25.30;99.90;;;;;;5035608;28;19973;-76
2021/06/14 08:27:35;;;;;;;;;;;25.60;99.90;;;;;;5034447;28;20023;-74
2021/06/14 08:30:01;;;;;;;;;;;25.70;99.90;;;;;;5034784;28;19920;-77
2021/06/14 08:32:27;;;;;;;;;;;25.60;99.90;;;;;;5017786;28;20008;-75
2021/06/14 08:34:52;;;;;;;;;;;25.30;99.90;;;;;;5037097;28;19955;-75
2021/06/14 08:37:18;;;;;;;;;;;25.40;99.90;;;;;;5036291;28;20337;-75
2021/06/14 08:39:44;;;;;;;;;;;25.70;99.90;;;;;;5017499;28;19909;-74
2021/06/14 08:42:09;;;;;;;;;;;25.80;99.90;;;;;;5035406;28;20231;-74
2021/06/14 08:44:35;;;;;;;;;;;25.70;99.90;;;;;;5036286;28;19909;-74
2021/06/14 08:47:03;;;;;;;;;;;25.90;99.90;;;;;;5035868;28;19959;-75
2021/06/14 08:49:29;;;;;;;;;;;26.10;99.90;;;;;;5033792;28;20006;-74
2021/06/14 08:51:54;;;;;;;;;;;26.30;99.90;;;;;;5035406;28;19956;-74
2021/06/14 08:54:20;;;;;;;;;;;26.20;99.90;;;;;;5034835;28;20405;-74
2021/06/14 08:56:45;;;;;;;;;;;25.90;99.90;;;;;;5015893;28;19921;-74
2021/06/14 08:59:11;;;;;;;;;;;25.80;99.90;;;;;;5033585;28;19932;-74
2021/06/14 09:01:37;;;;;;;;;;;25.90;99.90;;;;;;5015814;28;19931;-75
2021/06/14 09:04:03;;;;;;;;;;;25.80;99.90;;;;;;5034469;28;20579;-75
2021/06/14 09:06:28;;;;;;;;;;;25.90;99.90;;;;;;5016503;28;19971;-75
2021/06/14 09:08:55;;;;;;;;;;;25.90;99.90;;;;;;5034219;28;19920;-75
2021/06/14 09:11:20;;;;;;;;;;;25.60;99.90;;;;;;5034146;28;19913;-74
2021/06/14 09:13:46;;;;;;;;;;;25.80;99.90;;;;;;5033468;28;19959;-75
2021/06/14 09:16:16;;;;;;;;;;;25.90;99.90;;;;;;5015984;28;19909;-74
2021/06/14 09:18:43;;;;;;;;;;;25.90;99.90;;;;;;5032046;28;20290;-75
2021/06/14 09:21:10;;;;;;;;;;;26.10;99.90;;;;;;5033847;28;19909;-75
2021/06/14 09:23:46;;;;;;;;;;;26.20;99.90;;;;;;5033533;28;19920;-74
2021/06/14 09:26:26;;;;;;;;;;;25.90;99.90;;;;;;5033898;28;20003;-74
2021/06/14 09:28:57;;;;;;;;;;;26.00;99.90;;;;;;5014262;28;19913;-73
2021/06/14 09:31:26;;;;;;;;;;;25.80;99.90;;;;;;5014300;28;19956;-72
2021/06/14 09:33:51;;;;;;;;;;;25.80;99.90;;;;;;5031485;28;19917;-73
2021/06/14 09:36:19;;;;;;;;;;;25.90;99.90;;;;;;5041727;28;20429;-73
2021/06/14 09:38:45;;;;;;;;;;;25.70;99.90;;;;;;5039322;28;19913;-73
2021/06/14 09:41:12;;;;;;;;;;;25.50;99.90;;;;;;5039560;28;19971;-73
2021/06/14 09:43:39;;;;;;;;;;;25.70;99.90;;;;;;5035894;28;20000;-74
2021/06/14 09:46:15;;;;;;;;;;;25.90;99.90;;;;;;5033673;28;19915;-72
2021/06/14 09:48:41;;;;;;;;;;;26.00;99.90;;;;;;5034109;28;19964;-73
2021/06/14 09:51:07;;;;;;;;;;;26.10;99.90;;;;;;5033760;28;19913;-73
2021/06/14 09:53:41;;;;;;;;;;;26.00;99.90;;;;;;5038428;28;19916;-73
2021/06/14 09:56:22;;;;;;;;;;;25.80;99.90;;;;;;5041654;28;19909;-74
2021/06/14 09:58:48;;;;;;;;;;;25.50;99.90;;;;;;5036996;28;19917;-74
2021/06/14 10:01:21;;;;;;;;;;;25.40;99.90;;;;;;5021139;28;19948;-73
2021/06/14 10:03:47;;;;;;;;;;;25.50;99.90;;;;;;5036710;28;19967;-74
2021/06/14 10:06:13;;;;;;;;;;;25.80;99.90;;;;;;5034511;28;19909;-74
2021/06/14 10:08:42;;;;;;;;;;;25.80;99.90;;;;;;5033134;28;19909;-74
2021/06/14 10:11:09;;;;;;;;;;;25.90;99.90;;;;;;5032025;28;19925;-74
2021/06/14 10:13:37;;;;;;;;;;;25.90;99.90;;;;;;5015800;28;19929;-74
2021/06/14 10:16:04;;;;;;;;;;;26.00;99.90;;;;;;5033125;28;20367;-74
2021/06/14 10:18:35;;;;;;;;;;;26.20;99.90;;;;;;5030484;28;19920;-75
2021/06/14 10:21:01;;;;;;;;;;;26.30;99.90;;;;;;5032051;28;19917;-75
2021/06/14 10:23:27;;;;;;;;;;;26.50;99.90;;;;;;5014253;28;19920;-74
2021/06/14 10:25:56;;;;;;;;;;;26.60;99.90;;;;;;5032291;28;19916;-74
2021/06/14 10:28:22;;;;;;;;;;;26.70;99.90;;;;;;5032681;28;19909;-75
2021/06/14 10:30:48;;;;;;;;;;;26.80;99.90;;;;;;5014750;28;19917;-70
2021/06/14 10:33:14;;;;;;;;;;;26.70;99.90;;;;;;5033491;28;19917;-70
2021/06/14 10:35:40;;;;;;;;;;;26.80;99.90;;;;;;5033078;28;20003;-71
2021/06/14 10:38:05;;;;;;;;;;;27.00;99.90;;;;;;5032615;28;19959;-70
2021/06/14 10:40:33;;;;;;;;;;;27.30;99.90;;;;;;5033791;28;20394;-71
2021/06/14 10:42:59;;;;;;;;;;;27.80;99.90;;;;;;5036503;28;19955;-71
2021/06/14 10:45:27;;;;;;;;;;;28.10;99.90;;;;;;5032927;28;19909;-73
2021/06/14 10:47:53;;;;;;;;;;;28.00;99.90;;;;;;5031849;28;19913;-71
2021/06/14 10:50:21;;;;;;;;;;;27.70;99.90;;;;;;5030911;28;19924;-71
2021/06/14 10:52:47;;;;;;;;;;;27.50;99.90;;;;;;5030547;28;19913;-71
2021/06/14 10:55:17;;;;;;;;;;;27.30;99.90;;;;;;5030304;28;19910;-71
2021/06/14 10:57:43;;;;;;;;;;;26.80;99.90;;;;;;5043286;28;19952;-71
2021/06/14 11:00:19;;;;;;;;;;;26.50;99.90;;;;;;5032543;28;19913;-71
2021/06/14 11:02:56;;;;;;;;;;;26.20;99.90;;;;;;5031043;28;19974;-70
2021/06/14 11:05:35;;;;;;;;;;;26.00;99.90;;;;;;5030312;28;19913;-71
2021/06/14 11:08:30;;;;;;;;;;;25.80;99.90;;;;;;5030906;28;19913;-71
2021/06/14 11:11:00;;;;;;;;;;;25.90;99.90;;;;;;5001300;28;20249;-69
2021/06/14 11:13:26;;;;;;;;;;;26.00;99.90;;;;;;5031834;28;19909;-70
2021/06/14 11:15:53;;;;;;;;;;;25.60;99.90;;;;;;5031460;28;19978;-71
2021/06/14 11:18:26;;;;;;;;;;;25.60;99.90;;;;;;5031131;28;19921;-67
2021/06/14 11:20:53;;;;;;;;;;;25.70;99.90;;;;;;5032135;28;20444;-68
2021/06/14 11:23:26;;;;;;;;;;;25.60;99.90;;;;;;5014338;28;19909;-71
2021/06/14 11:25:52;;;;;;;;;;;25.50;99.90;;;;;;5031852;28;19909;-68
2021/06/14 11:28:35;;;;;;;;;;;25.60;99.90;;;;;;5030298;28;20343;-68
2021/06/14 11:31:11;;;;;;;;;;;25.90;99.90;;;;;;5031081;28;19971;-72
2021/06/14 11:33:38;;;;;;;;;;;26.10;99.90;;;;;;5030330;28;20644;-72
2021/06/14 11:36:11;;;;;;;;;;;26.20;99.90;;;;;;5031775;28;19976;-69
2021/06/14 11:38:37;;;;;;;;;;;26.20;99.90;;;;;;5029429;28;20341;-67
2021/06/14 11:41:03;;;;;;;;;;;26.40;99.90;;;;;;5030721;28;19979;-67
2021/06/14 11:43:28;;;;;;;;;;;26.60;99.90;;;;;;5030816;28;19956;-67
2021/06/14 11:45:56;;;;;;;;;;;26.50;99.90;;;;;;5030678;28;20278;-67
2021/06/14 11:48:27;;;;;;;;;;;26.30;99.90;;;;;;5030377;28;19928;-67
2021/06/14 11:51:09;;;;;;;;;;;26.20;99.90;;;;;;5030668;28;19971;-68
2021/06/14 11:53:45;;;;;;;;;;;26.10;99.90;;;;;;5011485;28;19922;-68
2021/06/14 11:56:11;;;;;;;;;;;25.90;99.90;;;;;;5011116;28;19913;-67
2021/06/14 11:58:40;;;;;;;;;;;26.00;99.90;;;;;;5017988;28;19917;-66
2021/06/14 12:01:06;;;;;;;;;;;26.00;99.90;;;;;;5031439;28;20294;-66
2021/06/14 12:03:31;;;;;;;;;;;25.90;99.90;;;;;;5031187;28;19909;-67
2021/06/14 12:05:57;;;;;;;;;;;25.80;99.90;;;;;;5032105;28;19913;-68
2021/06/14 12:08:24;;;;;;;;;;;25.80;99.90;;;;;;5034548;28;19955;-68
2021/06/14 12:10:50;;;;;;;;;;;25.90;99.90;;;;;;5034763;28;19920;-67
2021/06/14 12:13:18;;;;;;;;;;;25.80;99.90;;;;;;5014855;28;20372;-68
2021/06/14 12:15:44;;;;;;;;;;;25.80;99.90;;;;;;5023351;28;19975;-67
2021/06/14 12:18:11;;;;;;;;;;;25.70;99.90;;;;;;5014851;28;20330;-67
2021/06/14 12:20:38;;;;;;;;;;;25.60;99.90;;;;;;5016137;28;20019;-69
2021/06/14 12:23:05;;;;;;;;;;;25.70;99.90;;;;;;5034773;28;19914;-69
2021/06/14 12:25:32;;;;;;;;;;;26.00;99.90;;;;;;5034513;28;19913;-67
2021/06/14 12:28:02;;;;;;;;;;;26.00;99.90;;;;;;5034094;28;20511;-68
2021/06/14 12:30:28;;;;;;;;;;;25.80;99.90;;;;;;5023365;28;19929;-67
2021/06/14 12:32:54;;;;;;;;;;;25.50;99.90;;;;;;5033748;28;20456;-69
2021/06/14 12:35:21;;;;;;;;;;;25.50;99.90;;;;;;5032756;28;19913;-67
2021/06/14 12:37:47;;;;;;;;;;;25.50;99.90;;;;;;5032497;28;19920;-68
2021/06/14 12:40:15;;;;;;;;;;;25.40;99.90;;;;;;5033424;28;19909;-68
2021/06/14 12:42:41;;;;;;;;;;;25.50;99.90;;;;;;5015844;28;19917;-68
2021/06/14 12:45:08;;;;;;;;;;;25.60;99.90;;;;;;5033797;28;19909;-68
2021/06/14 12:47:34;;;;;;;;;;;25.80;99.90;;;;;;5033204;28;19914;-68
2021/06/14 12:50:00;;;;;;;;;;;25.80;99.90;;;;;;5032668;28;20007;-68
2021/06/14 12:52:28;;;;;;;;;;;25.90;99.90;;;;;;5033582;28;19917;-67
2021/06/14 12:54:53;;;;;;;;;;;25.90;99.90;;;;;;5033296;28;19909;-68
2021/06/14 12:57:24;;;;;;;;;;;25.80;99.90;;;;;;5015671;28;19940;-66
2021/06/14 12:59:50;;;;;;;;;;;25.80;99.90;;;;;;5032851;28;20003;-67
2021/06/14 13:02:15;;;;;;;;;;;25.60;99.90;;;;;;5014987;28;19921;-66
2021/06/14 13:04:42;;;;;;;;;;;25.60;99.90;;;;;;5033090;28;19924;-67
2021/06/14 13:07:15;;;;;;;;;;;25.50;99.90;;;;;;5032892;28;19957;-65
2021/06/14 13:09:50;;;;;;;;;;;25.30;99.90;;;;;;5031869;28;19917;-66
2021/06/14 13:12:35;;;;;;;;;;;25.10;99.90;;;;;;5031721;28;20865;-65
2021/06/14 13:15:17;;;;;;;;;;;25.00;99.90;;;;;;5031234;28;20133;-67
2021/06/14 13:17:52;;;;;;;;;;;25.00;99.90;;;;;;5027236;28;19921;-66
2021/06/14 13:20:22;;;;;;;;;;;25.10;99.90;;;;;;5030124;28;19948;-66
2021/06/14 13:22:48;;;;;;;;;;;25.00;99.90;;;;;;5031777;28;19913;-66
2021/06/14 13:25:14;;;;;;;;;;;25.00;99.90;;;;;;5033163;28;20393;-66
2021/06/14 13:27:47;;;;;;;;;;;25.10;99.90;;;;;;5032654;28;19956;-66
2021/06/14 13:30:13;;;;;;;;;;;25.40;99.90;;;;;;5014360;28;19917;-66
2021/06/14 13:33:04;;;;;;;;;;;25.40;99.90;;;;;;5032653;28;20001;-67
2021/06/14 13:35:29;;;;;;;;;;;25.40;99.90;;;;;;5030564;28;19952;-65
2021/06/14 13:37:56;;;;;;;;;;;25.50;99.90;;;;;;5031639;28;19957;-66
2021/06/14 13:40:28;;;;;;;;;;;25.60;99.90;;;;;;5032232;28;19924;-66
2021/06/14 13:42:55;;;;;;;;;;;25.60;99.90;;;;;;5032092;28;19959;-66
2021/06/14 13:45:28;;;;;;;;;;;25.50;99.90;;;;;;5032411;28;19916;-66
2021/06/14 13:48:04;;;;;;;;;;;25.30;99.90;;;;;;5032101;28;19925;-65
2021/06/14 13:50:59;;;;;;;;;;;25.20;99.90;;;;;;5030859;28;19924;-68
2021/06/14 13:53:27;;;;;;;;;;;25.20;99.90;;;;;;5029870;28;19913;-69
2021/06/14 13:55:52;;;;;;;;;;;25.40;99.90;;;;;;5031819;28;19975;-64
2021/06/14 13:58:19;;;;;;;;;;;25.20;99.90;;;;;;5032111;28;20394;-66
2021/06/14 14:00:45;;;;;;;;;;;25.20;99.90;;;;;;5031876;28;19913;-66
2021/06/14 14:03:11;;;;;;;;;;;24.90;99.90;;;;;;5032083;28;20454;-65
2021/06/14 14:05:38;;;;;;;;;;;24.90;99.90;;;;;;5015185;28;19913;-73
2021/06/14 14:08:04;;;;;;;;;;;24.80;99.90;;;;;;5015650;28;20282;-73
2021/06/14 14:10:31;;;;;;;;;;;25.00;99.90;;;;;;5032911;28;19925;-75
2021/06/14 14:12:57;;;;;;;;;;;25.20;99.90;;;;;;5033113;28;20268;-73
2021/06/14 14:15:23;;;;;;;;;;;25.30;99.90;;;;;;5015496;28;19957;-72
2021/06/14 14:17:49;;;;;;;;;;;25.50;99.90;;;;;;5033837;28;20391;-72
2021/06/14 14:20:23;;;;;;;;;;;25.60;99.90;;;;;;5036195;28;19957;-73
2021/06/14 14:22:49;;;;;;;;;;;25.80;99.90;;;;;;5036613;28;19988;-72